Time;durP1;ratioP1;P1;durP2;ratioP2;P2;SDS_P1;SDS_P2;PMS_P1;PMS_P2;Temp;Humidity;BMP_temperature;BMP_pressure;BME280_temperature;BME280_humidity;BME280_pressure;Samples;Min_cycle;Max_cycle;Signal;HPM_P1;HPM_P2
2024/01/08 00:00:41;;;;;;;0.77;0.77;;;;;;;10.92;100.00;97808.09;5098545;28;20207;-64
2024/01/08 00:03:08;;;;;;;1.30;1.20;;;;;;;10.90;100.00;97804.75;5089136;28;20196;-64
2024/01/08 00:05:39;;;;;;;2.23;1.60;;;;;;;10.83;100.00;97801.72;5093973;28;20211;-65
2024/01/08 00:08:06;;;;;;;1.10;1.07;;;;;;;10.84;100.00;97805.13;5091706;28;20203;-64
2024/01/08 00:10:33;;;;;;;3.70;1.50;;;;;;;10.81;100.00;97810.41;5101810;28;20740;-64
2024/01/08 00:13:00;;;;;;;2.60;1.43;;;;;;;10.76;100.00;97813.22;5111039;28;20218;-64
2024/01/08 00:15:27;;;;;;;1.33;1.33;;;;;;;10.74;100.00;97819.34;5104727;28;20211;-64
2024/01/08 00:17:54;;;;;;;1.03;1.00;;;;;;;10.67;100.00;97834.25;5092314;28;20199;-64
2024/01/08 00:20:20;;;;;;;1.40;1.27;;;;;;;10.67;100.00;97833.41;5105793;28;20207;-64
2024/01/08 00:22:48;;;;;;;3.77;1.27;;;;;;;10.65;100.00;97825.81;5092227;28;20207;-64
2024/01/08 00:25:15;;;;;;;2.00;1.90;;;;;;;10.66;100.00;97826.66;5099551;28;20215;-64
2024/01/08 00:27:42;;;;;;;1.87;1.77;;;;;;;10.63;100.00;97829.41;5100355;28;20203;-64
2024/01/08 00:30:10;;;;;;;2.43;2.23;;;;;;;10.63;100.00;97827.63;5098603;28;20289;-64
2024/01/08 00:32:37;;;;;;;2.13;2.03;;;;;;;10.63;100.00;97834.53;5096850;28;20215;-65
2024/01/08 00:35:04;;;;;;;2.57;2.13;;;;;;;10.64;100.00;97828.47;5102659;28;20248;-65
2024/01/08 00:37:33;;;;;;;1.97;1.83;;;;;;;10.67;100.00;97833.41;5092378;28;20628;-64
2024/01/08 00:40:01;;;;;;;3.90;2.00;;;;;;;10.49;100.00;97805.34;5090718;28;20772;-65
2024/01/08 00:42:27;;;;;;;2.60;2.40;;;;;;;10.64;100.00;97834.41;5095915;28;20203;-64
2024/01/08 00:44:54;;;;;;;1.23;1.23;;;;;;;10.66;100.00;97845.44;5094469;28;20199;-64
2024/01/08 00:47:21;;;;;;;1.53;1.43;;;;;;;10.67;100.00;97838.53;5104263;28;20260;-65
2024/01/08 00:49:47;;;;;;;2.10;1.93;;;;;;;10.66;100.00;97845.44;5100825;28;20195;-64
2024/01/08 00:52:14;;;;;;;2.17;1.70;;;;;;;10.56;100.00;97830.63;5094215;28;20227;-64
2024/01/08 00:54:41;;;;;;;1.77;1.70;;;;;;;10.63;100.00;97847.31;5105759;28;21011;-65
2024/01/08 00:57:09;;;;;;;9.90;2.40;;;;;;;10.64;100.00;97852.34;5091484;28;20276;-64
2024/01/08 00:59:35;;;;;;;2.87;1.97;;;;;;;10.58;100.00;97850.13;5092285;28;20637;-62
2024/01/08 01:02:02;;;;;;;1.83;1.80;;;;;;;10.58;100.00;97850.13;5097732;28;20248;-62
2024/01/08 01:04:29;;;;;;;1.63;1.60;;;;;;;10.58;100.00;97854.44;5100322;28;20662;-63
2024/01/08 01:06:56;;;;;;;2.50;1.27;;;;;;;10.54;100.00;97848.63;5100364;28;20199;-62
2024/01/08 01:09:22;;;;;;;3.33;1.77;;;;;;;10.45;100.00;97844.84;5099190;28;20199;-62
2024/01/08 01:11:49;;;;;;;1.83;1.73;;;;;;;10.49;100.00;97855.75;5099510;28;20738;-62
2024/01/08 01:14:17;;;;;;;2.53;2.40;;;;;;;10.41;100.00;97848.47;5107845;28;20203;-62
2024/01/08 01:16:44;;;;;;;4.20;2.27;;;;;;;10.43;100.00;97856.09;5094817;28;20207;-62
2024/01/08 01:19:10;;;;;;;1.47;1.47;;;;;;;10.41;100.00;97856.16;5100984;28;20199;-62
2024/01/08 01:21:37;;;;;;;1.20;1.20;;;;;;;10.42;100.00;97857.81;5100739;28;20719;-62
2024/01/08 01:24:05;;;;;;;1.80;1.70;;;;;;;10.41;100.00;97858.72;5102162;28;20632;-63
2024/01/08 01:26:31;;;;;;;2.53;1.90;;;;;;;10.43;100.00;97856.94;5099561;28;20648;-63
2024/01/08 01:28:58;;;;;;;1.77;1.47;;;;;;;10.42;100.00;97860.38;5101587;28;20210;-62
2024/01/08 01:31:26;;;;;;;3.27;1.83;;;;;;;10.39;100.00;97860.56;5093178;28;20203;-62
2024/01/08 01:33:53;;;;;;;4.40;2.23;;;;;;;10.27;100.00;97835.63;5097636;28;20260;-63
2024/01/08 01:36:19;;;;;;;8.63;2.00;;;;;;;10.36;100.00;97863.28;5101286;28;20203;-62
2024/01/08 01:38:46;;;;;;;2.07;1.93;;;;;;;10.33;100.00;97865.19;5103094;28;20198;-63
2024/01/08 01:41:13;;;;;;;1.40;1.40;;;;;;;10.32;100.00;97864.34;5106184;28;20253;-62
2024/01/08 01:43:40;;;;;;;2.87;1.93;;;;;;;10.34;100.00;97857.41;5099380;28;20196;-62
2024/01/08 01:46:17;;;;;;;12.13;2.10;;;;;;;10.35;100.00;97858.22;5101000;28;20195;-62
2024/01/08 01:48:45;;;;;;;8.20;1.97;;;;;;;10.35;100.00;97859.06;5098122;28;20675;-63
2024/01/08 01:51:13;;;;;;;1.70;1.60;;;;;;;10.38;100.00;97858.06;5101143;28;20199;-63
2024/01/08 01:53:40;;;;;;;1.93;1.80;;;;;;;10.38;100.00;97858.91;5096329;28;20210;-62
2024/01/08 01:56:09;;;;;;;4.47;2.20;;;;;;;10.41;100.00;97863.84;5101415;28;20202;-63
2024/01/08 01:58:36;;;;;;;2.27;2.17;;;;;;;10.41;100.00;97856.16;5098252;28;20206;-62
2024/01/08 02:01:02;;;;;;;2.73;2.53;;;;;;;10.43;100.00;97862.06;5098561;28;20207;-62
2024/01/08 02:03:30;;;;;;;5.67;2.20;;;;;;;10.39;100.00;97860.56;5094236;28;20647;-63
2024/01/08 02:05:58;;;;;;;3.53;2.53;;;;;;;10.36;100.00;97860.72;5092139;28;20203;-62
2024/01/08 02:08:27;;;;;;;1.80;1.70;;;;;;;10.17;100.00;97842.13;5099776;28;20202;-63
2024/01/08 02:10:53;;;;;;;2.00;1.90;;;;;;;10.28;100.00;97862.84;5096816;28;20260;-62
2024/01/08 02:13:20;;;;;;;1.67;1.57;;;;;;;10.31;100.00;97866.97;5099931;28;20283;-62
2024/01/08 02:15:47;;;;;;;4.73;2.10;;;;;;;10.31;100.00;97872.94;5099529;28;20206;-63
2024/01/08 02:18:13;;;;;;;2.63;2.50;;;;;;;10.33;100.00;97866.00;5092972;28;20199;-62
2024/01/08 02:20:40;;;;;;;2.00;1.90;;;;;;;10.10;100.00;97827.97;5102072;28;20199;-63
2024/01/08 02:23:08;;;;;;;4.13;1.53;;;;;;;10.34;100.00;97875.31;5095236;28;20671;-62
2024/01/08 02:25:35;;;;;;;2.40;1.83;;;;;;;10.33;100.00;97860.88;5095498;28;20579;-63
2024/01/08 02:28:02;;;;;;;4.90;2.90;;;;;;;10.31;100.00;97867.81;5094139;28;20681;-62
2024/01/08 02:30:28;;;;;;;13.77;1.50;;;;;;;10.33;100.00;97871.13;5096067;28;20210;-62
2024/01/08 02:32:55;;;;;;;0.90;0.90;;;;;;;10.32;100.00;97874.59;5100951;28;20219;-62
2024/01/08 02:35:22;;;;;;;1.50;1.43;;;;;;;10.33;100.00;97876.25;5103684;28;20198;-63
2024/01/08 02:37:48;;;;;;;1.40;0.87;;;;;;;10.31;100.00;97866.97;5100877;28;20256;-63
2024/01/08 02:40:17;;;;;;;1.10;1.10;;;;;;;10.35;100.00;97878.72;5102380;28;20752;-62
2024/01/08 02:42:43;;;;;;;1.60;1.50;;;;;;;10.24;100.00;97856.22;5097645;28;20263;-63
2024/01/08 02:45:10;;;;;;;1.30;1.30;;;;;;;10.36;100.00;97870.97;5105183;28;20244;-62
2024/01/08 02:47:40;;;;;;;1.17;1.17;;;;;;;10.47;100.00;97888.31;5102679;28;20216;-63
2024/01/08 02:50:07;;;;;;;1.40;1.30;;;;;;;10.46;100.00;97881.53;5096413;28;20198;-63
2024/01/08 02:52:34;;;;;;;1.50;1.40;;;;;;;10.43;100.00;97887.66;5096507;28;20268;-63
2024/01/08 02:55:02;;;;;;;1.80;1.70;;;;;;;10.43;100.00;97887.66;5097173;28;20206;-62
2024/01/08 02:57:31;;;;;;;1.53;1.33;;;;;;;10.25;100.00;97857.91;5094014;28;20196;-63
2024/01/08 02:59:58;;;;;;;1.63;1.53;;;;;;;10.39;100.00;97885.34;5094407;28;20207;-62
2024/01/08 03:02:26;;;;;;;2.63;2.07;;;;;;;10.45;100.00;97890.13;5097760;28;20244;-62
2024/01/08 03:04:53;;;;;;;1.50;1.50;;;;;;;10.39;100.00;97886.16;5101892;28;20187;-63
2024/01/08 03:07:20;;;;;;;1.60;1.50;;;;;;;10.45;100.00;97893.53;5100395;28;20199;-63
2024/01/08 03:09:47;;;;;;;1.90;1.50;;;;;;;10.45;100.00;97890.97;5098977;28;20641;-62
2024/01/08 03:12:14;;;;;;;1.40;1.40;;;;;;;10.44;100.00;97889.28;5094058;28;20215;-62
2024/01/08 03:14:43;;;;;;;1.80;1.70;;;;;;;10.46;100.00;97895.19;5095624;28;20640;-62
2024/01/08 03:17:10;;;;;;;1.57;1.47;;;;;;;10.43;100.00;97897.91;5097753;28;20198;-62
2024/01/08 03:19:37;;;;;;;1.57;1.47;;;;;;;10.32;100.00;97884.84;5094243;28;20274;-63
2024/01/08 03:22:04;;;;;;;2.37;1.10;;;;;;;10.44;100.00;97899.53;5099854;28;20214;-63
2024/01/08 03:24:31;;;;;;;1.17;1.10;;;;;;;10.46;100.00;97902.88;5096764;28;20278;-63
2024/01/08 03:26:58;;;;;;;1.00;0.97;;;;;;;10.40;100.00;97887.00;5094954;28;20248;-62
2024/01/08 03:29:25;;;;;;;0.70;0.70;;;;;;;10.45;100.00;97906.34;5097563;28;20678;-63
2024/01/08 03:31:53;;;;;;;1.00;1.00;;;;;;;10.47;100.00;97906.22;5100214;28;20257;-62
2024/01/08 03:34:20;;;;;;;1.10;1.10;;;;;;;10.48;100.00;97906.16;5093861;28;20217;-62
2024/01/08 03:36:47;;;;;;;1.43;0.90;;;;;;;10.46;100.00;97908.00;5094873;28;20198;-63
2024/01/08 03:39:14;;;;;;;1.10;1.07;;;;;;;10.47;100.00;97914.75;5104315;28;20271;-62
2024/01/08 03:41:41;;;;;;;0.93;0.93;;;;;;;10.48;100.00;97915.59;5097030;28;20359;-62
2024/01/08 03:44:08;;;;;;;0.70;0.70;;;;;;;10.45;100.00;97921.69;5097577;28;20187;-62
2024/01/08 03:46:35;;;;;;;1.10;1.00;;;;;;;10.42;100.00;97911.63;5099913;28;20214;-63
2024/01/08 03:49:03;;;;;;;0.73;0.73;;;;;;;10.42;100.00;97916.75;5101392;28;20556;-63
2024/01/08 03:51:31;;;;;;;0.90;0.90;;;;;;;10.40;100.00;97923.66;5105083;28;20202;-63
2024/01/08 03:53:58;;;;;;;0.73;0.73;;;;;;;10.42;100.00;97921.88;5101608;28;20747;-62
2024/01/08 03:56:24;;;;;;;0.80;0.80;;;;;;;10.39;100.00;97911.78;5102246;28;20244;-63
2024/01/08 03:58:51;;;;;;;0.90;0.90;;;;;;;10.41;100.00;97920.19;5100566;28;20194;-62
2024/01/08 04:01:18;;;;;;;0.97;0.97;;;;;;;10.39;100.00;97927.16;5095667;28;20241;-62
2024/01/08 04:03:44;;;;;;;0.63;0.63;;;;;;;10.40;100.00;97928.78;5105605;28;20195;-63
2024/01/08 04:06:13;;;;;;;0.60;0.60;;;;;;;10.29;100.00;97925.97;5096895;28;20209;-62
2024/01/08 04:08:39;;;;;;;2.67;0.80;;;;;;;10.41;100.00;97940.69;5101280;28;20206;-63
2024/01/08 04:11:06;;;;;;;0.97;0.97;;;;;;;10.45;100.00;97947.31;5099808;28;20200;-63
2024/01/08 04:13:33;;;;;;;0.77;0.77;;;;;;;10.31;100.00;97924.16;5108059;28;20218;-63
2024/01/08 04:15:59;;;;;;;0.90;0.90;;;;;;;10.06;100.00;97879.41;5105827;28;20744;-63
2024/01/08 04:18:26;;;;;;;0.40;0.40;;;;;;;10.45;100.00;97955.00;5103298;28;20215;-63
2024/01/08 04:20:53;;;;;;;0.80;0.80;;;;;;;10.49;100.00;97953.94;5101570;28;20348;-63
2024/01/08 04:23:21;;;;;;;0.77;0.77;;;;;;;10.47;100.00;97955.75;5102482;28;20195;-63
2024/01/08 04:25:48;;;;;;;2.70;0.83;;;;;;;10.41;100.00;97948.38;5101169;28;20660;-63
2024/01/08 04:28:14;;;;;;;0.73;0.73;;;;;;;10.33;100.00;97932.59;5094635;28;20257;-62
2024/01/08 04:30:41;;;;;;;1.07;1.03;;;;;;;10.44;100.00;97957.63;5094280;28;20207;-63
2024/01/08 04:33:08;;;;;;;1.47;1.37;;;;;;;10.50;100.00;97965.03;5095716;28;20211;-63
2024/01/08 04:35:34;;;;;;;1.33;1.33;;;;;;;10.48;100.00;97970.22;5104196;28;20758;-63
2024/01/08 04:38:01;;;;;;;0.80;0.80;;;;;;;10.50;100.00;97976.06;5100006;28;20195;-62
2024/01/08 04:40:29;;;;;;;2.43;0.97;;;;;;;10.49;100.00;97984.69;5106170;28;20275;-63
2024/01/08 04:42:56;;;;;;;0.70;0.70;;;;;;;10.52;100.00;97986.25;5102549;28;20199;-63
2024/01/08 04:45:22;;;;;;;0.47;0.47;;;;;;;10.51;100.00;97990.53;5104289;28;20621;-63
2024/01/08 04:47:49;;;;;;;1.00;1.00;;;;;;;10.38;100.00;97974.16;5098525;28;20199;-62
2024/01/08 04:50:16;;;;;;;0.70;0.70;;;;;;;10.53;100.00;97998.97;5095887;28;20195;-64
2024/01/08 04:52:43;;;;;;;0.70;0.70;;;;;;;10.45;100.00;97998.56;5104527;28;20219;-62
2024/01/08 04:55:09;;;;;;;0.77;0.77;;;;;;;10.46;100.00;98005.34;5102727;28;20211;-63
2024/01/08 04:57:37;;;;;;;0.90;0.90;;;;;;;10.43;100.00;98008.06;5095644;28;20199;-63
2024/01/08 05:00:06;;;;;;;0.60;0.60;;;;;;;10.42;100.00;98016.66;5095595;27;20267;-63
2024/01/08 05:02:33;;;;;;;0.60;0.60;;;;;;;10.41;100.00;98021.84;5097196;28;20644;-62
2024/01/08 05:05:01;;;;;;;0.40;0.40;;;;;;;10.36;100.00;98022.09;5101052;28;20255;-62
2024/01/08 05:07:28;;;;;;;0.90;0.90;;;;;;;10.37;100.00;98026.28;5097895;28;20195;-63
2024/01/08 05:09:54;;;;;;;0.90;0.90;;;;;;;10.33;100.00;98027.38;5103807;28;20248;-63
2024/01/08 05:12:21;;;;;;;0.73;0.73;;;;;;;10.33;100.00;98032.50;5100413;28;20743;-63
2024/01/08 05:14:49;;;;;;;0.40;0.40;;;;;;;10.31;100.00;98031.72;5094226;28;20265;-63
2024/01/08 05:17:16;;;;;;;0.80;0.57;;;;;;;10.29;100.00;98041.22;5103125;28;20260;-63
2024/01/08 05:19:43;;;;;;;0.60;0.60;;;;;;;10.25;100.00;98042.28;5089797;28;20199;-63
2024/01/08 05:22:09;;;;;;;0.43;0.43;;;;;;;10.07;100.00;98021.88;5089136;28;20257;-63
2024/01/08 05:24:36;;;;;;;0.87;0.87;;;;;;;10.19;100.00;98054.56;5099920;28;20754;-63
2024/01/08 05:27:03;;;;;;;0.60;0.60;;;;;;;10.17;100.00;98056.38;5097070;28;20268;-63
2024/01/08 05:29:30;;;;;;;1.10;1.10;;;;;;;10.18;100.00;98066.53;5093029;28;20548;-63
2024/01/08 05:31:58;;;;;;;0.60;0.60;;;;;;;10.21;100.00;98065.56;5094551;28;20644;-63
2024/01/08 05:34:24;;;;;;;0.67;0.67;;;;;;;10.23;100.00;98068.88;5101122;28;20230;-64
2024/01/08 05:36:51;;;;;;;0.70;0.70;;;;;;;10.30;100.00;98071.06;5091230;28;20207;-64
2024/01/08 05:39:18;;;;;;;0.63;0.63;;;;;;;10.29;100.00;98071.97;5099399;28;20230;-63
2024/01/08 05:41:46;;;;;;;0.50;0.50;;;;;;;10.40;100.00;98082.47;5096978;28;20732;-64
2024/01/08 05:44:13;;;;;;;0.60;0.60;;;;;;;10.42;100.00;98085.81;5096406;28;20195;-63
2024/01/08 05:46:43;;;;;;;0.80;0.80;;;;;;;10.39;100.00;98090.25;5100175;28;20215;-63
2024/01/08 05:49:12;;;;;;;0.90;0.90;;;;;;;10.42;100.00;98101.19;5096271;28;20571;-64
2024/01/08 05:51:39;;;;;;;8.50;1.57;;;;;;;10.21;100.00;98051.00;5092817;28;20319;-63
2024/01/08 05:54:06;;;;;;;2.87;0.93;;;;;;;10.48;100.00;98103.44;5100227;28;20268;-64
2024/01/08 05:56:33;;;;;;;0.63;0.60;;;;;;;10.50;100.00;98104.16;5100411;28;20191;-63
2024/01/08 05:59:00;;;;;;;0.87;0.80;;;;;;;10.45;100.00;98103.59;5105116;28;20639;-63
2024/01/08 06:01:27;;;;;;;1.67;1.10;;;;;;;10.50;100.00;98109.28;5092974;28;20269;-63
2024/01/08 06:03:53;;;;;;;0.80;0.80;;;;;;;10.47;100.00;98116.31;5100376;28;20955;-64
2024/01/08 06:06:21;;;;;;;2.67;1.00;;;;;;;10.35;100.00;98094.69;5100157;28;20247;-63
2024/01/08 06:08:49;;;;;;;1.27;0.73;;;;;;;10.14;100.00;98080.41;5102277;28;20626;-64
2024/01/08 06:11:15;;;;;;;0.63;0.63;;;;;;;10.29;100.00;98124.91;5099988;28;20676;-64
2024/01/08 06:13:42;;;;;;;0.60;0.60;;;;;;;10.14;100.00;98111.16;5102501;28;20259;-63
2024/01/08 06:16:15;;;;;;;0.60;0.60;;;;;;;10.07;100.00;98122.56;5101583;28;20249;-63
2024/01/08 06:18:41;;;;;;;0.80;0.80;;;;;;;10.08;100.00;98136.19;5098684;28;20259;-63
2024/01/08 06:21:08;;;;;;;0.70;0.70;;;;;;;10.00;100.00;98139.09;5094386;28;20257;-63
2024/01/08 06:23:36;;;;;;;0.90;0.90;;;;;;;9.84;100.00;98115.97;5106866;28;20199;-62
2024/01/08 06:26:03;;;;;;;0.87;0.77;;;;;;;9.73;100.00;98119.91;5095581;28;20199;-64
2024/01/08 06:28:30;;;;;;;0.87;0.87;;;;;;;9.65;100.00;98116.91;5097524;28;20263;-63
2024/01/08 06:30:57;;;;;;;1.00;1.00;;;;;;;9.86;100.00;98151.72;5097497;28;20623;-63
2024/01/08 06:33:24;;;;;;;1.27;1.27;;;;;;;9.82;100.00;98150.22;5101049;28;20273;-64
2024/01/08 06:35:51;;;;;;;0.60;0.60;;;;;;;9.72;100.00;98149.00;5101025;28;20210;-63
2024/01/08 06:38:17;;;;;;;1.13;0.90;;;;;;;9.66;100.00;98144.16;5097991;28;20689;-63
2024/01/08 06:40:45;;;;;;;0.57;0.57;;;;;;;9.67;100.00;98150.91;5100768;28;20227;-63
2024/01/08 06:43:13;;;;;;;1.13;1.13;;;;;;;9.73;100.00;98171.09;5099568;27;20227;-63
2024/01/08 06:45:40;;;;;;;0.60;0.60;;;;;;;9.38;100.00;98124.94;5103019;28;20199;-64
2024/01/08 06:48:07;;;;;;;0.70;0.70;;;;;;;9.65;100.00;98168.06;5096531;28;20286;-63
2024/01/08 06:50:34;;;;;;;0.53;0.53;;;;;;;9.69;100.00;98184.97;5097046;28;20651;-63
2024/01/08 06:53:00;;;;;;;2.63;0.70;;;;;;;9.58;100.00;98166.69;5096303;28;20199;-63
2024/01/08 06:55:27;;;;;;;0.97;0.80;;;;;;;9.61;100.00;98187.84;5104866;28;20655;-63
2024/01/08 06:57:55;;;;;;;2.10;0.93;;;;;;;9.47;100.00;98183.34;5100030;28;20264;-63
2024/01/08 07:00:23;;;;;;;0.60;0.60;;;;;;;9.63;100.00;98195.47;5102864;28;20228;-63
2024/01/08 07:02:50;;;;;;;0.70;0.70;;;;;;;9.47;100.00;98185.91;5097597;28;20249;-63
2024/01/08 07:05:18;;;;;;;9.23;0.77;;;;;;;9.65;100.00;98220.09;5102631;28;20187;-63
2024/01/08 07:07:45;;;;;;;4.47;1.47;;;;;;;9.50;100.00;98201.13;5098466;28;20642;-63
2024/01/08 07:10:12;;;;;;;1.33;1.23;;;;;;;9.43;100.00;98194.63;5092464;28;20195;-63
2024/01/08 07:12:39;;;;;;;1.00;1.00;;;;;;;9.49;100.00;98214.84;5103338;28;20203;-63
2024/01/08 07:15:08;;;;;;;2.53;1.37;;;;;;;8.47;100.00;98043.88;5097345;28;20639;-63
2024/01/08 07:17:34;;;;;;;6.30;0.97;;;;;;;9.35;100.00;98206.94;5096835;28;20195;-63
2024/01/08 07:20:02;;;;;;;4.27;1.13;;;;;;;9.45;100.00;98220.97;5099836;28;20198;-64
2024/01/08 07:22:29;;;;;;;0.80;0.80;;;;;;;9.61;100.00;98263.78;5097304;28;20203;-63
2024/01/08 07:24:55;;;;;;;1.03;1.03;;;;;;;9.61;100.00;98274.00;5097267;28;20664;-63
2024/01/08 07:27:22;;;;;;;0.80;0.80;;;;;;;9.59;100.00;98286.03;5095533;28;20211;-63
2024/01/08 07:29:49;;;;;;;4.77;1.70;;;;;;;9.61;100.00;98309.81;5100091;28;20674;-64
2024/01/08 07:32:18;;;;;;;0.67;0.67;;;;;;;9.65;100.00;98316.47;5090600;28;20207;-64
2024/01/08 07:34:45;;;;;;;1.13;1.13;;;;;;;9.77;100.00;98315.94;5092225;28;20222;-63
2024/01/08 07:37:11;;;;;;;1.07;0.80;;;;;;;9.91;100.00;98323.84;5098407;28;20199;-63
2024/01/08 07:39:38;;;;;;;0.70;0.70;;;;;;;9.79;100.00;98298.81;5094169;28;20652;-63
2024/01/08 07:42:05;;;;;;;2.03;1.90;;;;;;;10.05;100.00;98336.84;5096416;28;20248;-64
2024/01/08 07:44:32;;;;;;;0.93;0.93;;;;;;;10.06;100.00;98337.66;5091354;28;20696;-63
2024/01/08 07:46:58;;;;;;;0.60;0.60;;;;;;;9.91;100.00;98328.97;5088875;28;20207;-63
2024/01/08 07:49:26;;;;;;;0.70;0.70;;;;;;;10.02;100.00;98349.78;5093865;28;20206;-64
2024/01/08 07:51:53;;;;;;;0.87;0.87;;;;;;;9.80;100.00;98324.31;5092546;28;20629;-63
2024/01/08 07:54:20;;;;;;;0.63;0.63;;;;;;;9.91;100.00;98339.19;5091567;28;20231;-63
2024/01/08 07:56:47;;;;;;;0.53;0.53;;;;;;;9.91;100.00;98337.47;5092730;28;20199;-64
2024/01/08 07:59:13;;;;;;;0.60;0.60;;;;;;;10.08;100.00;98364.84;5088526;28;20200;-64
2024/01/08 08:01:40;;;;;;;1.23;1.23;;;;;;;9.97;100.00;98344.03;5088335;28;20199;-64
2024/01/08 08:04:07;;;;;;;1.10;1.10;;;;;;;10.16;100.00;98370.53;5086250;28;20733;-64
2024/01/08 08:06:35;;;;;;;0.50;0.50;;;;;;;9.62;100.00;98288.47;5096380;28;20254;-64
2024/01/08 08:09:02;;;;;;;0.70;0.70;;;;;;;10.11;100.00;98377.56;5091491;28;20568;-64
2024/01/08 08:11:28;;;;;;;0.63;0.63;;;;;;;9.96;100.00;98366.25;5088830;28;20427;-66
2024/01/08 08:13:56;;;;;;;0.70;0.70;;;;;;;10.01;100.00;98386.53;5093614;28;20474;-63
2024/01/08 08:16:22;;;;;;;1.07;1.07;;;;;;;10.04;100.00;98404.31;5090347;28;20210;-64
2024/01/08 08:18:49;;;;;;;1.03;1.03;;;;;;;10.01;100.00;98401.91;5086817;28;20660;-63
2024/01/08 08:21:17;;;;;;;0.90;0.90;;;;;;;9.93;100.00;98393.72;5089165;28;20204;-64
2024/01/08 08:23:45;;;;;;;0.50;0.50;;;;;;;9.97;100.00;98401.19;5088620;28;20299;-64
2024/01/08 08:26:11;;;;;;;0.77;0.77;;;;;;;9.98;100.00;98396.91;5092510;28;20261;-64
2024/01/08 08:28:38;;;;;;;4.50;0.80;;;;;;;10.01;100.00;98412.13;5092829;28;20273;-65
2024/01/08 08:31:05;;;;;;;4.97;0.97;;;;;;;9.94;100.00;98410.75;5097402;28;20256;-65
2024/01/08 08:33:32;;;;;;;0.60;0.60;;;;;;;9.88;100.00;98419.53;5095824;28;20556;-65
2024/01/08 08:35:58;;;;;;;0.57;0.57;;;;;;;9.77;100.00;98415.75;5093408;28;20755;-64
2024/01/08 08:38:25;;;;;;;0.60;0.53;;;;;;;9.75;100.00;98415.00;5092156;28;20198;-64
2024/01/08 08:40:53;;;;;;;0.60;0.60;;;;;;;9.66;100.00;98426.41;5098176;28;20227;-65
2024/01/08 08:43:20;;;;;;;0.90;0.90;;;;;;;9.52;100.00;98402.31;5091781;28;20657;-65
2024/01/08 08:45:46;;;;;;;0.60;0.60;;;;;;;9.61;100.00;98423.25;5100326;28;20206;-65
2024/01/08 08:48:13;;;;;;;0.40;0.40;;;;;;;9.53;100.00;98427.03;5100770;28;20198;-68
2024/01/08 08:50:40;;;;;;;3.00;0.60;;;;;;;9.53;100.00;98437.25;5099364;28;20260;-68
2024/01/08 08:53:06;;;;;;;0.80;0.80;;;;;;;9.57;100.00;98439.59;5098951;28;20231;-66
2024/01/08 08:55:33;;;;;;;0.50;0.50;;;;;;;9.57;100.00;98446.44;5103199;28;20640;-64
2024/01/08 08:58:00;;;;;;;0.63;0.63;;;;;;;9.59;100.00;98447.22;5103123;28;20281;-64
2024/01/08 09:00:27;;;;;;;0.60;0.60;;;;;;;9.59;100.00;98449.78;5099309;28;20699;-64
2024/01/08 09:02:54;;;;;;;0.60;0.60;;;;;;;9.63;100.00;98456.44;5097297;28;20195;-64
2024/01/08 09:05:21;;;;;;;0.70;0.70;;;;;;;9.62;100.00;98459.91;5105878;28;20201;-64
2024/01/08 09:07:48;;;;;;;0.90;0.90;;;;;;;9.67;100.00;98460.53;5105835;27;20234;-64
2024/01/08 09:10:15;;;;;;;0.50;0.50;;;;;;;9.69;100.00;98461.31;5101641;28;20608;-64
2024/01/08 09:12:42;;;;;;;1.23;1.00;;;;;;;9.65;100.00;98455.47;5100760;27;20215;-64
2024/01/08 09:15:10;;;;;;;0.53;0.53;;;;;;;9.76;100.00;98467.81;5094573;28;20768;-64
2024/01/08 09:17:37;;;;;;;0.40;0.40;;;;;;;9.78;100.00;98469.44;5094612;28;20275;-64
2024/01/08 09:20:08;;;;;;;0.50;0.50;;;;;;;9.79;100.00;98471.06;5096763;28;20262;-64
2024/01/08 09:22:35;;;;;;;0.33;0.33;;;;;;;9.81;100.00;98465.91;5092796;28;20195;-65
2024/01/08 09:25:04;;;;;;;0.40;0.40;;;;;;;9.81;100.00;98460.78;5096057;28;20199;-64
2024/01/08 09:27:31;;;;;;;0.47;0.47;;;;;;;9.71;100.00;98441.59;5097988;28;20195;-65
2024/01/08 09:29:58;;;;;;;0.70;0.70;;;;;;;9.89;100.00;98474.91;5099414;28;20206;-65
2024/01/08 09:32:26;;;;;;;0.70;0.70;;;;;;;9.62;100.00;98434.31;5098780;28;20203;-64
2024/01/08 09:34:52;;;;;;;1.10;1.10;;;;;;;9.92;100.00;98473.94;5096752;28;20292;-65
2024/01/08 09:37:20;;;;;;;0.90;0.90;;;;;;;9.92;100.00;98473.94;5098660;28;20260;-64
2024/01/08 09:39:47;;;;;;;0.57;0.57;;;;;;;9.93;100.00;98478.19;5097072;28;20258;-64
2024/01/08 09:42:15;;;;;;;0.57;0.57;;;;;;;9.88;100.00;98478.41;5096875;28;20259;-64
2024/01/08 09:44:47;;;;;;;0.80;0.80;;;;;;;9.87;100.00;98475.88;5095385;28;20226;-64
2024/01/08 09:47:16;;;;;;;0.50;0.50;;;;;;;9.88;100.00;98472.44;5100733;28;20233;-65
2024/01/08 09:49:45;;;;;;;0.50;0.50;;;;;;;9.95;100.00;98484.09;5095424;28;20214;-64
2024/01/08 09:52:14;;;;;;;0.60;0.60;;;;;;;9.89;100.00;98469.81;5098986;28;20203;-65
2024/01/08 09:54:42;;;;;;;0.40;0.40;;;;;;;9.95;100.00;98471.28;5099268;28;20218;-65
2024/01/08 09:57:09;;;;;;;0.40;0.40;;;;;;;9.81;100.00;98448.00;5096094;28;20207;-64
2024/01/08 09:59:37;;;;;;;0.50;0.50;;;;;;;9.95;100.00;98484.91;5101368;28;20753;-64
2024/01/08 10:02:04;;;;;;;0.60;0.60;;;;;;;9.99;100.00;98480.47;5097992;28;20671;-64
2024/01/08 10:04:31;;;;;;;0.47;0.47;;;;;;;9.95;100.00;98481.53;5092625;28;20205;-63
2024/01/08 10:07:06;;;;;;;0.70;0.70;;;;;;;9.92;100.00;98485.03;5098465;28;20200;-64
2024/01/08 10:09:33;;;;;;;0.73;0.73;;;;;;;9.84;100.00;98465.78;5093525;28;20743;-65
2024/01/08 10:12:00;;;;;;;2.00;0.60;;;;;;;9.85;100.00;98477.69;5096751;28;20207;-64
2024/01/08 10:14:28;;;;;;;0.60;0.60;;;;;;;9.80;100.00;98483.00;5099281;28;20230;-64
2024/01/08 10:16:55;;;;;;;0.90;0.90;;;;;;;9.75;100.00;98461.06;5098171;28;20203;-64
2024/01/08 10:19:23;;;;;;;0.70;0.70;;;;;;;9.85;100.00;98495.59;5097038;28;20235;-63
2024/01/08 10:22:08;;;;;;;0.50;0.50;;;;;;;9.70;100.00;98478.31;5090949;28;20685;-64
2024/01/08 10:24:35;;;;;;;0.67;0.67;;;;;;;9.75;100.00;98497.72;5097526;28;20211;-63
2024/01/08 10:27:02;;;;;;;0.60;0.60;;;;;;;9.63;100.00;98484.59;5098386;28;20209;-64
2024/01/08 10:29:29;;;;;;;0.57;0.57;;;;;;;9.61;100.00;98483.81;5099812;28;20670;-64
2024/01/08 10:31:56;;;;;;;0.57;0.57;;;;;;;9.73;100.00;98496.94;5098941;28;20257;-64
2024/01/08 10:34:24;;;;;;;0.40;0.40;;;;;;;9.41;100.00;98457.31;5100931;28;20202;-64
2024/01/08 10:36:52;;;;;;;0.40;0.40;;;;;;;9.71;100.00;98500.44;5099694;28;20210;-64
2024/01/08 10:39:22;;;;;;;0.70;0.70;;;;;;;9.68;100.00;98510.81;5098325;28;20305;-64
2024/01/08 10:41:49;;;;;;;0.80;0.80;;;;;;;9.77;100.00;98507.88;5095013;28;20199;-64
2024/01/08 10:44:16;;;;;;;0.80;0.80;;;;;;;9.78;100.00;98507.00;5091498;28;20261;-65
2024/01/08 10:46:48;;;;;;;0.57;0.57;;;;;;;9.60;100.00;98492.38;5092417;28;20656;-64
2024/01/08 10:49:21;;;;;;;0.60;0.60;;;;;;;9.64;100.00;98511.81;5098446;28;20210;-63
2024/01/08 10:51:49;;;;;;;0.70;0.70;;;;;;;9.68;100.00;98518.50;5097036;28;20260;-64
2024/01/08 10:54:19;;;;;;;0.70;0.70;;;;;;;9.49;100.00;98501.34;5091827;28;20221;-64
2024/01/08 10:56:53;;;;;;;0.67;0.67;;;;;;;9.57;100.00;98524.03;5093863;28;20199;-63
2024/01/08 10:59:23;;;;;;;0.60;0.60;;;;;;;9.57;100.00;98526.59;5089221;28;20199;-68
2024/01/08 11:01:51;;;;;;;0.70;0.70;;;;;;;9.40;100.00;98501.69;5088229;28;20286;-68
2024/01/08 11:04:18;;;;;;;0.40;0.40;;;;;;;9.46;100.00;98521.09;5095320;28;20195;-68
2024/01/08 11:06:47;;;;;;;0.53;0.53;;;;;;;9.46;100.00;98521.94;5085363;28;20257;-69
2024/01/08 11:09:25;;;;;;;0.67;0.67;;;;;;;9.46;100.00;98518.53;5097734;28;20219;-68
2024/01/08 11:11:54;;;;;;;0.63;0.63;;;;;;;9.27;100.00;98504.81;5097428;28;20258;-68
2024/01/08 11:14:21;;;;;;;0.70;0.70;;;;;;;9.35;100.00;98524.06;5095468;28;20709;-68
2024/01/08 11:16:49;;;;;;;0.50;0.50;;;;;;;9.31;100.00;98522.50;5092513;28;20282;-68
2024/01/08 11:19:26;;;;;;;1.00;1.00;;;;;;;9.33;100.00;98530.97;5096112;28;20199;-68
2024/01/08 11:21:56;;;;;;;0.50;0.50;;;;;;;9.38;100.00;98526.50;5091551;28;20211;-68
2024/01/08 11:24:24;;;;;;;1.10;1.10;;;;;;;9.35;100.00;98529.16;5091774;28;20555;-68
2024/01/08 11:26:51;;;;;;;1.27;0.90;;;;;;;9.30;100.00;98528.53;5101097;28;20231;-68
2024/01/08 11:29:21;;;;;;;0.60;0.60;;;;;;;9.29;100.00;98531.13;5098572;28;20242;-68